Weems, Virginia
Current Conditions -  °F | °C
As of 2:15 AM on Saturday 20 Dec 2014 (Local Time) from KW75 Reporting Station
Clear Clear  
Wind Chill: 29°   Ceiling: Unl
Heat Index: 33°   Visibility: 10mi
Dew Point: 26°   Wind: 5mph
Humidity: 75%   Direction: 340°NNW
Pressure: 30.25"   Gusts: NA
Location:  37.65°N, 76.44°W
Report Text: KW75 200715Z AUTO 34004KT 10SM CLR 01/M03 A3025 RMK AO1 T00051035
Loading
Personal Weather Stations






























Interactive Weather Map New forecast layout! Learn more

10-Day Weather Forecast

Advertisements
Track Severe Weather on mobile